createdAt,value
2023-06-18T00:00:43.165Z,31.59
2023-06-18T00:03:10.816Z,31.35
2023-06-18T00:05:38.584Z,31.00
2023-06-18T00:08:06.965Z,31.74
2023-06-18T00:10:34.545Z,31.57
2023-06-18T00:13:02.186Z,31.08
2023-06-18T00:15:29.677Z,32.06
2023-06-18T00:17:57.327Z,31.48
2023-06-18T00:20:24.986Z,32.06
2023-06-18T00:22:54.413Z,31.00
2023-06-18T00:25:22.441Z,31.10
2023-06-18T00:27:50.079Z,32.02
2023-06-18T00:30:17.652Z,31.86
2023-06-18T00:32:45.865Z,31.78
2023-06-18T00:35:15.735Z,32.14
2023-06-18T00:37:45.126Z,32.26
2023-06-18T00:40:13.691Z,32.19
2023-06-18T00:42:41.660Z,30.84
2023-06-18T00:45:13.286Z,31.11
2023-06-18T00:47:43.660Z,32.30
2023-06-18T00:50:17.387Z,32.45
2023-06-18T00:52:48.643Z,32.10
2023-06-18T00:55:17.657Z,31.95
2023-06-18T00:58:00.951Z,30.86
2023-06-18T01:00:35.567Z,31.39
2023-06-18T01:03:06.356Z,31.42
2023-06-18T01:05:35.812Z,31.59
2023-06-18T01:08:08.932Z,30.62
2023-06-18T01:10:40.688Z,31.87
2023-06-18T01:13:10.382Z,30.85
2023-06-18T01:15:39.654Z,31.91
2023-06-18T01:18:08.754Z,31.12
2023-06-18T01:20:42.988Z,31.85
2023-06-18T01:23:18.370Z,32.08
2023-06-18T01:25:47.665Z,31.99
2023-06-18T01:28:16.658Z,31.95
2023-06-18T01:30:44.271Z,32.28
2023-06-18T01:33:14.044Z,32.01
2023-06-18T01:35:42.273Z,32.13
2023-06-18T01:38:29.138Z,32.72
2023-06-18T01:41:14.245Z,32.31
2023-06-18T01:43:53.874Z,31.53
2023-06-18T01:46:25.405Z,32.24
2023-06-18T01:48:58.037Z,31.09
2023-06-18T01:51:28.271Z,31.83
2023-06-18T01:53:58.519Z,32.11
2023-06-18T01:56:30.579Z,32.06
2023-06-18T01:58:58.196Z,29.24
2023-06-18T02:01:27.714Z,30.43
2023-06-18T02:03:55.568Z,29.56
2023-06-18T02:06:23.179Z,30.89
2023-06-18T02:08:50.711Z,29.88
2023-06-18T02:11:18.300Z,30.45
2023-06-18T02:13:46.141Z,30.55
2023-06-18T02:16:13.736Z,31.11
2023-06-18T02:18:41.688Z,31.50
2023-06-18T02:21:09.710Z,30.57
2023-06-18T02:23:37.248Z,29.66
2023-06-18T02:26:04.952Z,31.27
2023-06-18T02:28:32.544Z,31.67
2023-06-18T02:31:00.213Z,31.75
2023-06-18T02:33:28.039Z,31.70
2023-06-18T02:35:55.536Z,30.68
2023-06-18T02:38:23.060Z,31.06
2023-06-18T02:40:50.671Z,30.90
2023-06-18T02:43:18.450Z,31.52
2023-06-18T02:45:46.078Z,31.62
2023-06-18T02:48:14.656Z,31.10
2023-06-18T02:50:42.328Z,31.23
2023-06-18T02:53:09.937Z,31.63
2023-06-18T02:55:38.234Z,30.69
2023-06-18T02:58:10.487Z,30.80
2023-06-18T03:00:38.204Z,31.25
2023-06-18T03:03:07.347Z,31.06
2023-06-18T03:05:37.764Z,30.65
2023-06-18T03:08:06.431Z,31.55
2023-06-18T03:10:34.679Z,31.93
2023-06-18T03:13:02.233Z,32.10
2023-06-18T03:15:44.618Z,31.62
2023-06-18T03:18:13.802Z,31.84
2023-06-18T03:20:43.824Z,31.59
2023-06-18T03:23:11.382Z,31.75
2023-06-18T03:25:42.388Z,31.34
2023-06-18T03:28:15.339Z,30.79
2023-06-18T03:30:43.788Z,31.15
2023-06-18T03:33:11.757Z,30.84
2023-06-18T03:35:41.306Z,31.73
2023-06-18T03:38:09.344Z,31.62
2023-06-18T03:40:37.112Z,32.03
2023-06-18T03:43:04.622Z,32.23
2023-06-18T03:45:32.210Z,32.42
2023-06-18T03:48:00.534Z,31.78
2023-06-18T03:50:34.610Z,31.00
2023-06-18T03:53:02.449Z,30.73
2023-06-18T03:55:30.084Z,29.73
2023-06-18T03:57:59.054Z,30.45
2023-06-18T04:00:26.973Z,30.85
2023-06-18T04:02:54.668Z,29.92
2023-06-18T04:05:22.376Z,31.96
2023-06-18T04:07:49.932Z,32.41
2023-06-18T04:10:18.510Z,32.73
2023-06-18T04:12:46.267Z,32.73
2023-06-18T04:15:13.914Z,33.06
2023-06-18T04:17:43.080Z,33.30
2023-06-18T04:20:14.002Z,32.87
2023-06-18T04:22:41.789Z,33.10
2023-06-18T04:25:12.077Z,33.29
2023-06-18T04:27:41.026Z,33.39
2023-06-18T04:30:09.686Z,33.49
2023-06-18T04:32:39.379Z,33.12
2023-06-18T04:35:07.541Z,33.91
2023-06-18T04:37:35.220Z,33.98
2023-06-18T04:40:05.468Z,33.01
2023-06-18T04:42:34.552Z,34.03
2023-06-18T04:45:02.812Z,33.99
2023-06-18T04:47:30.962Z,31.93
2023-06-18T04:49:58.673Z,32.94
2023-06-18T04:52:26.315Z,34.31
2023-06-18T04:54:54.695Z,34.07
2023-06-18T04:57:23.478Z,34.49
2023-06-18T04:59:51.525Z,33.70
2023-06-18T05:02:19.339Z,33.86
2023-06-18T05:04:46.981Z,34.98
2023-06-18T05:07:16.908Z,33.92
2023-06-18T05:09:44.533Z,35.03
2023-06-18T05:12:12.413Z,35.48
2023-06-18T05:14:40.016Z,34.74
2023-06-18T05:17:07.704Z,34.31
2023-06-18T05:19:35.242Z,34.12
2023-06-18T05:22:03.228Z,33.05
2023-06-18T05:24:31.695Z,34.01
2023-06-18T05:26:59.316Z,32.84
2023-06-18T05:29:26.898Z,34.04
2023-06-18T05:31:54.915Z,34.33
2023-06-18T05:34:29.896Z,33.96
2023-06-18T05:36:57.709Z,34.37
2023-06-18T05:39:25.553Z,35.25
2023-06-18T05:41:53.567Z,35.10
2023-06-18T05:44:23.516Z,34.67
2023-06-18T05:46:51.178Z,35.38
2023-06-18T05:49:19.043Z,34.58
2023-06-18T05:51:47.939Z,34.18
2023-06-18T05:54:15.657Z,34.64
2023-06-18T05:56:43.206Z,36.16
2023-06-18T05:59:11.606Z,35.68
2023-06-18T06:01:45.268Z,35.60
2023-06-18T06:04:14.088Z,35.70
2023-06-18T06:06:41.794Z,36.61
2023-06-18T06:09:10.394Z,36.69
2023-06-18T06:11:40.990Z,36.47
2023-06-18T06:14:12.259Z,35.22
2023-06-18T06:16:41.053Z,34.65
2023-06-18T06:19:08.741Z,35.47
2023-06-18T06:21:36.316Z,34.35
2023-06-18T06:24:04.268Z,36.16
2023-06-18T06:26:32.987Z,34.58
2023-06-18T06:29:02.103Z,34.63
2023-06-18T06:31:29.667Z,36.21
2023-06-18T06:33:57.612Z,36.25
2023-06-18T06:36:26.681Z,34.75
2023-06-18T06:38:55.444Z,35.26
2023-06-18T06:41:24.175Z,34.11
2023-06-18T06:43:52.280Z,34.14
2023-06-18T06:46:19.852Z,35.80
2023-06-18T06:49:08.502Z,36.47
2023-06-18T06:51:59.269Z,37.69
2023-06-18T06:54:27.775Z,36.72
2023-06-18T06:56:55.433Z,36.48
2023-06-18T06:59:23.296Z,37.40
2023-06-18T07:01:50.903Z,36.58
2023-06-18T07:04:18.469Z,36.82
2023-06-18T07:06:46.169Z,36.12
2023-06-18T07:09:13.787Z,36.94
2023-06-18T07:11:41.782Z,37.79
2023-06-18T07:14:09.597Z,37.29
2023-06-18T07:16:37.142Z,37.82
2023-06-18T07:19:05.081Z,38.30
2023-06-18T07:21:32.578Z,35.88
2023-06-18T07:24:00.176Z,36.85
2023-06-18T07:26:27.843Z,36.74
2023-06-18T07:28:55.444Z,36.07
2023-06-18T07:31:22.907Z,36.13
2023-06-18T07:33:50.382Z,36.20
2023-06-18T07:36:17.890Z,36.88
2023-06-18T07:38:45.460Z,36.79
2023-06-18T07:41:12.988Z,38.36
2023-06-18T07:43:42.005Z,38.66
2023-06-18T07:46:09.754Z,37.81
2023-06-18T07:48:38.836Z,38.11
2023-06-18T07:51:07.028Z,37.00
2023-06-18T07:53:34.582Z,37.56
2023-06-18T07:56:02.136Z,38.43
2023-06-18T07:58:29.726Z,39.12
2023-06-18T08:00:57.303Z,38.31
2023-06-18T08:03:24.846Z,37.99
2023-06-18T08:05:55.531Z,38.09
2023-06-18T08:08:23.055Z,38.22
2023-06-18T08:10:51.742Z,38.53
2023-06-18T08:13:19.313Z,38.37
2023-06-18T08:15:47.173Z,38.22
2023-06-18T08:18:14.908Z,38.62
2023-06-18T08:20:42.623Z,37.69
2023-06-18T08:23:10.468Z,36.10
2023-06-18T08:25:37.927Z,36.70
2023-06-18T08:28:05.436Z,37.56
2023-06-18T08:30:33.403Z,38.16
2023-06-18T08:33:00.938Z,39.38
2023-06-18T08:35:28.517Z,39.48
2023-06-18T08:37:56.017Z,37.34
2023-06-18T08:40:28.107Z,40.25
2023-06-18T08:43:06.686Z,39.26
2023-06-18T08:45:35.134Z,39.40
2023-06-18T08:48:19.400Z,40.62
2023-06-18T08:51:00.578Z,39.44
2023-06-18T08:53:51.978Z,40.24
2023-06-18T08:56:22.867Z,41.33
2023-06-18T08:58:54.122Z,39.17
2023-06-18T09:01:21.944Z,39.73
2023-06-18T09:03:50.881Z,41.10
2023-06-18T09:06:19.407Z,41.30
2023-06-18T09:08:47.837Z,40.84
2023-06-18T09:11:15.830Z,41.75
2023-06-18T09:13:44.499Z,40.49
2023-06-18T09:16:12.976Z,40.90
2023-06-18T09:18:40.894Z,39.70
2023-06-18T09:21:08.677Z,40.65
2023-06-18T09:23:37.611Z,40.61
2023-06-18T09:26:05.167Z,38.93
2023-06-18T09:28:32.771Z,40.99
2023-06-18T09:31:02.646Z,40.00
2023-06-18T09:33:37.792Z,39.65
2023-06-18T09:36:09.845Z,39.67
2023-06-18T09:38:42.232Z,40.43
2023-06-18T09:41:17.656Z,41.22
2023-06-18T09:43:51.818Z,41.62
2023-06-18T09:46:23.471Z,41.51
2023-06-18T09:48:51.434Z,41.66
2023-06-18T09:51:26.515Z,40.66
2023-06-18T09:53:59.786Z,39.56
2023-06-18T09:56:27.340Z,41.25
2023-06-18T09:58:54.871Z,42.06
2023-06-18T10:01:22.812Z,41.64
2023-06-18T10:03:50.621Z,40.05
2023-06-18T10:06:23.411Z,42.44
2023-06-18T10:08:56.770Z,42.03
2023-06-18T10:11:25.668Z,41.94
2023-06-18T10:13:59.368Z,42.45
2023-06-18T10:16:30.038Z,41.59
2023-06-18T10:19:07.451Z,41.29
2023-06-18T10:21:38.251Z,42.41
2023-06-18T10:24:19.674Z,42.60
2023-06-18T10:26:48.147Z,42.04
2023-06-18T10:29:15.684Z,43.26
2023-06-18T10:31:44.023Z,44.42
2023-06-18T10:34:13.642Z,44.35
2023-06-18T10:36:41.776Z,44.14
2023-06-18T10:39:22.075Z,44.82
2023-06-18T10:41:55.470Z,45.97
2023-06-18T10:44:51.556Z,46.14
2023-06-18T10:47:25.069Z,44.14
2023-06-18T10:50:08.446Z,46.00
2023-06-18T10:52:37.812Z,46.22
2023-06-18T10:55:14.391Z,46.51
2023-06-18T10:57:46.914Z,45.02
2023-06-18T11:00:22.075Z,45.61
2023-06-18T11:02:58.373Z,45.54
2023-06-18T11:05:37.839Z,47.05
2023-06-18T11:08:08.233Z,45.52
2023-06-18T11:11:14.232Z,47.13
2023-06-18T11:13:51.972Z,48.25
2023-06-18T11:16:19.616Z,49.66
2023-06-18T11:18:47.723Z,49.43
2023-06-18T11:21:20.206Z,48.80
2023-06-18T11:23:49.824Z,48.68
2023-06-18T11:26:21.106Z,45.25
2023-06-18T11:28:50.703Z,46.21
2023-06-18T11:31:18.320Z,46.37
2023-06-18T11:33:50.128Z,46.41
2023-06-18T11:36:20.588Z,47.45
2023-06-18T11:38:52.934Z,46.31
2023-06-18T11:41:22.751Z,49.52
2023-06-18T11:43:53.021Z,47.50
2023-06-18T11:46:35.549Z,44.98
2023-06-18T11:49:03.579Z,48.11
2023-06-18T11:51:32.594Z,48.72
2023-06-18T11:54:00.895Z,48.75
2023-06-18T11:56:31.174Z,47.93
2023-06-18T11:58:59.807Z,50.50
2023-06-18T12:01:32.100Z,47.48
2023-06-18T12:04:07.020Z,47.47
2023-06-18T12:06:36.038Z,50.67
2023-06-18T12:09:11.518Z,48.82
2023-06-18T12:12:08.643Z,50.31
2023-06-18T12:14:54.692Z,48.82
2023-06-18T12:17:32.379Z,46.53
2023-06-18T12:20:06.811Z,47.35
2023-06-18T12:22:36.001Z,47.88
2023-06-18T12:25:04.313Z,48.36
2023-06-18T12:27:32.017Z,49.39
2023-06-18T12:30:00.867Z,49.75
2023-06-18T12:32:28.526Z,49.09
2023-06-18T12:34:56.718Z,50.36
2023-06-18T12:37:34.350Z,51.51
2023-06-18T12:40:09.331Z,50.25
2023-06-18T12:42:37.745Z,49.72
2023-06-18T12:45:06.218Z,50.23
2023-06-18T12:47:40.082Z,48.77
2023-06-18T12:50:08.265Z,48.32
2023-06-18T12:52:46.516Z,48.50
2023-06-18T12:55:16.091Z,48.25
2023-06-18T12:57:45.202Z,48.78
2023-06-18T13:00:16.195Z,49.13
2023-06-18T13:02:47.721Z,48.20
2023-06-18T13:05:15.958Z,46.65
2023-06-18T13:07:51.853Z,47.01
2023-06-18T13:10:22.819Z,47.69
2023-06-18T13:12:50.445Z,48.53
2023-06-18T13:15:18.278Z,48.90
2023-06-18T13:17:46.130Z,49.00
2023-06-18T13:20:14.205Z,48.56
2023-06-18T13:22:41.821Z,49.25
2023-06-18T13:25:10.351Z,48.36
2023-06-18T13:27:37.936Z,49.02
2023-06-18T13:30:06.226Z,46.75
2023-06-18T13:32:33.738Z,48.59
2023-06-18T13:35:01.287Z,47.75
2023-06-18T13:37:28.982Z,49.23
2023-06-18T13:39:56.569Z,48.66
2023-06-18T13:42:24.217Z,47.87
2023-06-18T13:44:52.055Z,46.99
2023-06-18T13:47:19.696Z,46.05
2023-06-18T13:49:48.505Z,48.62
2023-06-18T13:52:16.165Z,48.91
2023-06-18T13:54:43.743Z,49.65
2023-06-18T13:57:11.635Z,50.69
2023-06-18T13:59:39.413Z,49.96
2023-06-18T14:02:07.642Z,48.91
2023-06-18T14:04:36.892Z,48.91
2023-06-18T14:07:05.760Z,49.56
2023-06-18T14:09:33.368Z,47.10
2023-06-18T14:12:01.208Z,43.17
2023-06-18T14:14:28.725Z,45.49
2023-06-18T14:16:56.828Z,47.58
2023-06-18T14:19:26.123Z,49.98
2023-06-18T14:21:54.126Z,49.65
2023-06-18T14:24:21.847Z,49.41
2023-06-18T14:26:49.624Z,49.83
2023-06-18T14:29:17.429Z,50.03
2023-06-18T14:31:45.140Z,47.79
2023-06-18T14:34:15.214Z,48.44
2023-06-18T14:36:42.726Z,50.03
2023-06-18T14:39:10.302Z,49.38
2023-06-18T14:41:37.973Z,49.31
2023-06-18T14:44:05.740Z,47.97
2023-06-18T14:46:33.345Z,48.31
2023-06-18T14:49:00.876Z,48.64
2023-06-18T14:51:28.437Z,48.09
2023-06-18T14:54:03.388Z,45.47
2023-06-18T14:56:31.910Z,48.14
2023-06-18T14:58:59.433Z,48.85
2023-06-18T15:01:28.924Z,47.34
2023-06-18T15:03:56.827Z,47.34
2023-06-18T15:06:24.664Z,47.88
2023-06-18T15:08:52.258Z,47.71
2023-06-18T15:11:19.923Z,48.05
2023-06-18T15:13:47.507Z,48.36
2023-06-18T15:16:15.044Z,47.29
2023-06-18T15:18:42.571Z,47.76
2023-06-18T15:21:10.204Z,47.28
2023-06-18T15:23:37.886Z,47.29
2023-06-18T15:26:08.161Z,46.62
2023-06-18T15:28:35.817Z,46.96
2023-06-18T15:31:03.365Z,48.78
2023-06-18T15:33:31.011Z,47.47
2023-06-18T15:35:58.540Z,47.06
2023-06-18T15:38:25.996Z,46.46
2023-06-18T15:40:54.424Z,47.21
2023-06-18T15:43:23.489Z,46.65
2023-06-18T15:45:51.388Z,46.53
2023-06-18T15:48:19.522Z,47.04
2023-06-18T15:50:48.967Z,46.80
2023-06-18T15:53:19.650Z,45.20
2023-06-18T15:55:48.559Z,44.90
2023-06-18T15:58:19.599Z,44.65
2023-06-18T16:00:47.325Z,43.12
2023-06-18T16:03:14.993Z,41.86
2023-06-18T16:05:42.942Z,41.77
2023-06-18T16:08:10.656Z,43.10
2023-06-18T16:10:38.923Z,43.27
2023-06-18T16:13:07.467Z,43.26
2023-06-18T16:15:35.131Z,42.73
2023-06-18T16:18:08.146Z,43.13
2023-06-18T16:20:37.764Z,44.07
2023-06-18T16:23:05.684Z,43.20
2023-06-18T16:25:33.682Z,42.22
2023-06-18T16:28:01.773Z,43.79
2023-06-18T16:30:31.217Z,42.87
2023-06-18T16:33:02.044Z,43.55
2023-06-18T16:35:29.952Z,42.41
2023-06-18T16:37:57.616Z,44.14
2023-06-18T16:40:27.458Z,44.42
2023-06-18T16:42:55.247Z,44.58
2023-06-18T16:45:23.155Z,43.30
2023-06-18T16:47:51.036Z,44.99
2023-06-18T16:50:18.717Z,44.98
2023-06-18T16:52:46.257Z,44.28
2023-06-18T16:55:13.759Z,44.67
2023-06-18T16:57:41.305Z,45.28
2023-06-18T17:00:09.345Z,45.76
2023-06-18T17:02:37.754Z,45.14
2023-06-18T17:05:06.180Z,45.13
2023-06-18T17:07:34.814Z,44.64
2023-06-18T17:10:02.372Z,45.12
2023-06-18T17:12:29.989Z,45.11
2023-06-18T17:14:57.558Z,44.93
2023-06-18T17:17:27.629Z,44.68
2023-06-18T17:19:55.197Z,43.14
2023-06-18T17:22:22.792Z,43.15
2023-06-18T17:24:50.355Z,44.29
2023-06-18T17:27:17.962Z,43.53
2023-06-18T17:29:46.579Z,43.64
2023-06-18T17:32:14.150Z,42.71
2023-06-18T17:34:41.689Z,43.10
2023-06-18T17:37:11.342Z,42.34
2023-06-18T17:39:39.005Z,43.10
2023-06-18T17:42:06.824Z,43.13
2023-06-18T17:44:34.496Z,41.13
2023-06-18T17:47:02.064Z,41.28
2023-06-18T17:49:29.541Z,41.43
2023-06-18T17:51:57.203Z,40.20
2023-06-18T17:54:25.022Z,39.86
2023-06-18T17:56:52.561Z,40.13
2023-06-18T17:59:20.162Z,41.10
2023-06-18T18:01:49.610Z,39.98
2023-06-18T18:04:17.330Z,40.78
2023-06-18T18:06:46.581Z,40.35
2023-06-18T18:09:14.275Z,40.55
2023-06-18T18:11:41.894Z,40.91
2023-06-18T18:14:09.634Z,40.51
2023-06-18T18:16:37.647Z,39.95
2023-06-18T18:19:05.341Z,39.32
2023-06-18T18:21:32.894Z,39.44
2023-06-18T18:24:00.504Z,39.00
2023-06-18T18:26:39.099Z,38.24
2023-06-18T18:29:14.584Z,37.56
2023-06-18T18:31:42.125Z,37.81
2023-06-18T18:34:11.706Z,37.16
2023-06-18T18:36:40.206Z,37.10
2023-06-18T18:39:08.340Z,37.07
2023-06-18T18:41:36.013Z,36.74
2023-06-18T18:44:04.233Z,37.07
2023-06-18T18:46:32.360Z,36.68
2023-06-18T18:49:00.783Z,37.30
2023-06-18T18:51:28.373Z,36.98
2023-06-18T18:53:56.243Z,36.10
2023-06-18T18:56:24.018Z,35.40
2023-06-18T18:58:51.541Z,34.78
2023-06-18T19:01:19.156Z,34.82
2023-06-18T19:03:46.986Z,35.56
2023-06-18T19:06:14.697Z,35.29
2023-06-18T19:08:42.683Z,35.66
2023-06-18T19:11:13.499Z,35.81
2023-06-18T19:13:41.414Z,35.72
2023-06-18T19:16:09.354Z,35.49
2023-06-18T19:18:37.991Z,35.49
2023-06-18T19:21:05.953Z,34.86
2023-06-18T19:23:33.884Z,34.40
2023-06-18T19:26:02.134Z,34.09
2023-06-18T19:28:30.003Z,34.32
2023-06-18T19:30:57.795Z,34.37
2023-06-18T19:33:25.388Z,34.81
2023-06-18T19:35:53.306Z,34.38
2023-06-18T19:38:20.955Z,34.33
2023-06-18T19:40:50.892Z,33.77
2023-06-18T19:43:22.373Z,34.12
2023-06-18T19:45:50.207Z,33.12
2023-06-18T19:48:18.148Z,33.03
2023-06-18T19:50:45.991Z,32.68
2023-06-18T19:53:13.591Z,33.59
2023-06-18T19:55:42.039Z,33.88
2023-06-18T19:58:09.661Z,33.93
2023-06-18T20:00:41.662Z,33.59
2023-06-18T20:03:09.519Z,33.63
2023-06-18T20:05:38.212Z,33.49
2023-06-18T20:08:05.885Z,33.92
2023-06-18T20:10:34.016Z,33.31
2023-06-18T20:13:01.672Z,33.30
2023-06-18T20:15:30.791Z,33.21
2023-06-18T20:17:58.496Z,33.04
2023-06-18T20:20:26.730Z,33.18
2023-06-18T20:22:54.533Z,32.75
2023-06-18T20:25:22.653Z,32.26
2023-06-18T20:27:50.299Z,32.86
2023-06-18T20:30:18.877Z,32.45
2023-06-18T20:32:46.555Z,32.45
2023-06-18T20:35:14.143Z,32.34
2023-06-18T20:37:41.713Z,32.64
2023-06-18T20:40:09.733Z,32.34
2023-06-18T20:42:37.310Z,32.02
2023-06-18T20:45:05.351Z,31.53
2023-06-18T20:47:33.032Z,31.69
2023-06-18T20:50:00.874Z,31.48
2023-06-18T20:52:29.180Z,31.26
2023-06-18T20:54:56.873Z,31.08
2023-06-18T20:57:24.539Z,31.73
2023-06-18T20:59:53.177Z,31.82
2023-06-18T21:02:23.723Z,31.36
2023-06-18T21:04:52.702Z,31.91
2023-06-18T21:07:21.417Z,32.15
2023-06-18T21:09:49.213Z,31.30
2023-06-18T21:12:16.805Z,31.46
2023-06-18T21:14:44.441Z,31.69
2023-06-18T21:17:12.103Z,31.88
2023-06-18T21:19:39.786Z,31.97
2023-06-18T21:22:07.285Z,32.01
2023-06-18T21:24:34.874Z,31.99
2023-06-18T21:27:02.460Z,31.53
2023-06-18T21:29:29.958Z,31.53
2023-06-18T21:31:59.097Z,31.47
2023-06-18T21:34:26.828Z,31.21
2023-06-18T21:36:54.474Z,30.50
2023-06-18T21:39:22.060Z,31.08
2023-06-18T21:41:49.887Z,31.38
2023-06-18T21:44:17.374Z,31.15
2023-06-18T21:46:45.530Z,30.82
2023-06-18T21:49:13.193Z,30.36
2023-06-18T21:51:40.751Z,30.17
2023-06-18T21:54:08.337Z,30.60
2023-06-18T21:56:35.872Z,30.65
2023-06-18T21:59:03.439Z,30.90
2023-06-18T22:01:34.017Z,30.42
2023-06-18T22:04:01.645Z,29.91
2023-06-18T22:06:29.388Z,30.37
2023-06-18T22:08:56.902Z,30.37
2023-06-18T22:11:24.430Z,30.06
2023-06-18T22:13:51.989Z,30.54
2023-06-18T22:16:19.873Z,30.70
2023-06-18T22:18:48.070Z,30.93
2023-06-18T22:21:15.882Z,31.18
2023-06-18T22:23:44.636Z,30.97
2023-06-18T22:26:12.224Z,30.77
2023-06-18T22:28:39.860Z,30.73
2023-06-18T22:31:07.450Z,30.25
2023-06-18T22:33:34.968Z,30.58
